createdAt,value
2017-06-02T00:00:28.632Z,48.97
2017-06-02T00:02:53.014Z,48.88
2017-06-02T00:05:17.403Z,49.27
2017-06-02T00:07:41.795Z,50.24
2017-06-02T00:10:06.185Z,50.82
2017-06-02T00:12:16.189Z,50.72
2017-06-02T00:14:32.135Z,50.62
2017-06-02T00:16:56.527Z,50.62
2017-06-02T00:19:12.413Z,50.82
2017-06-02T00:21:36.803Z,50.92
2017-06-02T00:23:52.687Z,50.72
2017-06-02T00:26:17.065Z,51.3
2017-06-02T00:28:41.466Z,51.4
2017-06-02T00:31:05.859Z,52.34
2017-06-02T00:33:30.242Z,52.53
2017-06-02T00:35:54.632Z,52.34
2017-06-02T00:38:19.029Z,53.47
2017-06-02T00:40:43.402Z,53.11
2017-06-02T00:43:07.804Z,52.82
2017-06-02T00:45:23.797Z,53.11
2017-06-02T00:47:48.189Z,53.47
2017-06-02T00:50:04.075Z,53.19
2017-06-02T00:52:28.459Z,53.09
2017-06-02T00:54:52.851Z,53.96
2017-06-02T00:57:17.141Z,53.38
2017-06-02T00:59:41.528Z,53.96
2017-06-02T01:02:05.913Z,53.93
2017-06-02T01:04:30.305Z,52.8
2017-06-02T01:06:54.688Z,52.89
2017-06-02T01:09:18.973Z,52.89
2017-06-02T01:11:43.369Z,53.57
2017-06-02T01:14:07.666Z,52.34
2017-06-02T01:16:00.620Z,52.73
2017-06-02T01:18:24.999Z,53.96
2017-06-02T01:20:49.383Z,53.09
2017-06-02T01:23:13.770Z,53.86
2017-06-02T01:25:38.164Z,53.38
2017-06-02T01:28:02.556Z,52.92
2017-06-02T01:30:26.860Z,52.44
2017-06-02T01:32:51.232Z,52.14
2017-06-02T01:35:15.609Z,51.88
2017-06-02T01:37:40.011Z,52.53
2017-06-02T01:40:04.395Z,52.73
2017-06-02T01:42:28.783Z,51.68
2017-06-02T01:44:44.674Z,51.68
2017-06-02T01:47:09.076Z,51.3
2017-06-02T01:49:33.460Z,52.46
2017-06-02T01:51:57.846Z,52.56
2017-06-02T01:54:22.236Z,51.88
2017-06-02T01:56:46.627Z,52.75
2017-06-02T01:59:11.012Z,52.44
2017-06-02T02:01:35.405Z,52.27
2017-06-02T02:03:51.285Z,51.68
2017-06-02T02:06:15.683Z,52.46
2017-06-02T02:08:40.068Z,52.53
2017-06-02T02:11:04.457Z,52.44
2017-06-02T02:13:28.848Z,52.56
2017-06-02T02:15:53.228Z,51.59
2017-06-02T02:18:17.629Z,52.08
2017-06-02T02:20:27.619Z,52.85
2017-06-02T02:22:51.969Z,53.69
2017-06-02T02:25:07.858Z,53.89
2017-06-02T02:27:23.743Z,54.15
2017-06-02T02:29:48.139Z,54.63
2017-06-02T02:32:12.517Z,54.05
2017-06-02T02:34:36.911Z,54.35
2017-06-02T02:37:01.301Z,53.59
2017-06-02T02:39:25.729Z,54.37
2017-06-02T02:41:50.078Z,54.83
2017-06-02T02:44:14.483Z,55.19
2017-06-02T02:46:38.849Z,55.47
2017-06-02T02:49:03.261Z,55.47
2017-06-02T02:51:27.637Z,55.38
2017-06-02T02:53:43.535Z,55.19
2017-06-02T02:56:07.906Z,55.47
2017-06-02T02:58:32.194Z,56.41
2017-06-02T03:00:56.595Z,56.77
2017-06-02T03:03:12.481Z,58.32
2017-06-02T03:05:36.764Z,58.87
2017-06-02T03:07:38.185Z,59.55
2017-06-02T03:10:02.506Z,59.06
2017-06-02T03:12:27.725Z,59.16
2017-06-02T03:14:51.998Z,58.51
2017-06-02T03:17:16.280Z,58.87
2017-06-02T03:19:40.570Z,58.51
2017-06-02T03:21:56.352Z,58.22
2017-06-02T03:24:20.640Z,58.7
2017-06-02T03:26:44.927Z,57.16
2017-06-02T03:29:09.212Z,56.8
2017-06-02T03:31:33.507Z,57.64
2017-06-02T03:33:57.789Z,56.61
2017-06-02T03:36:22.077Z,55.77
2017-06-02T03:38:46.366Z,56.22
2017-06-02T03:41:10.649Z,55.87
2017-06-02T03:43:34.882Z,55.96
2017-06-02T03:45:59.125Z,56.41
2017-06-02T03:48:23.411Z,55.87
2017-06-02T03:50:47.702Z,56.8
2017-06-02T03:53:11.986Z,56.61
2017-06-02T03:55:36.272Z,56.63
2017-06-02T03:58:00.559Z,56.15
2017-06-02T04:00:24.956Z,55.96
2017-06-02T04:02:49.230Z,55.6
2017-06-02T04:04:50.659Z,54.75
2017-06-02T04:07:14.974Z,54.27
2017-06-02T04:09:39.267Z,54.47
2017-06-02T04:12:03.645Z,55.11
2017-06-02T04:14:05.067Z,55.11
2017-06-02T04:16:29.392Z,56.15
2017-06-02T04:18:45.276Z,55.21
2017-06-02T04:20:47.284Z,55.43
2017-06-02T04:23:11.645Z,53.53
2017-06-02T04:25:36.021Z,49.85
2017-06-02T04:27:52.018Z,45.69
2017-06-02T04:30:16.508Z,41.91
2017-06-02T04:32:41.112Z,40.56
2017-06-02T04:34:42.644Z,37.81
2017-06-02T04:37:07.482Z,35.99
2017-06-02T04:39:32.399Z,32.27
2017-06-02T04:41:49.007Z,31.51
2017-06-02T04:44:05.625Z,29.03
2017-06-02T04:46:30.943Z,27.78
2017-06-02T04:48:56.457Z,24.99
2017-06-02T04:51:21.749Z,22.29
2017-06-02T04:53:47.299Z,21.23
2017-06-02T04:56:13.023Z,19.97
2017-06-02T04:58:38.744Z,20.35
2017-06-02T05:01:04.591Z,18.52
2017-06-02T05:03:30.512Z,19.29
2017-06-02T05:05:47.972Z,16.86
2017-06-02T05:08:05.572Z,17.16
2017-06-02T05:10:31.806Z,18.71
2017-06-02T05:12:58.041Z,17.35
2017-06-02T05:15:24.265Z,19.29
2017-06-02T05:17:50.393Z,23.62
2017-06-02T05:20:16.413Z,25.15
2017-06-02T05:22:43.365Z,28.79
2017-06-02T05:25:09.178Z,32.15
2017-06-02T05:27:34.748Z,29.03
2017-06-02T05:30:00.322Z,26.92
2017-06-02T05:32:25.944Z,24.24
2017-06-02T05:34:52.595Z,20.27
2017-06-02T05:37:18.342Z,21.62
2017-06-02T05:39:44.077Z,19.9
2017-06-02T05:42:09.963Z,16.8
2017-06-02T05:44:35.964Z,15.53
2017-06-02T05:47:02.108Z,15.89
2017-06-02T05:49:19.746Z,18.99
2017-06-02T05:51:37.321Z,20.51
2017-06-02T05:54:03.312Z,21.6
2017-06-02T05:56:29.242Z,22.37
2017-06-02T05:58:55.151Z,26.09
2017-06-02T06:01:12.376Z,27.15
2017-06-02T06:03:38.031Z,25.73
2017-06-02T06:05:40.318Z,23.71
2017-06-02T06:08:05.984Z,22.86
2017-06-02T06:10:31.630Z,20.28
2017-06-02T06:12:57.357Z,18.71
2017-06-02T06:15:23.174Z,17.05
2017-06-02T06:17:49.092Z,16.69
2017-06-02T06:19:57.960Z,18.02
2017-06-02T06:22:23.966Z,18.54
2017-06-02T06:24:41.450Z,18.73
2017-06-02T06:27:07.392Z,19.97
2017-06-02T06:29:33.414Z,21.7
2017-06-02T06:31:59.308Z,22.67
2017-06-02T06:34:25.141Z,23.72
2017-06-02T06:36:26.967Z,26.04
2017-06-02T06:38:52.755Z,25.65
2017-06-02T06:41:18.416Z,25.93
2017-06-02T06:43:35.494Z,26.99
2017-06-02T06:46:01.068Z,27.09
2017-06-02T06:48:26.664Z,27.2
2017-06-02T06:50:43.804Z,28.05
2017-06-02T06:53:09.434Z,28.24
2017-06-02T06:55:34.983Z,29.49
2017-06-02T06:57:51.945Z,30.93
2017-06-02T07:00:17.401Z,33.02
2017-06-02T07:02:34.244Z,33.7
2017-06-02T07:04:59.526Z,36.28
2017-06-02T07:07:24.714Z,36.1
2017-06-02T07:09:49.872Z,36.75
2017-06-02T07:12:16.044Z,37.63
2017-06-02T07:14:41.189Z,37.91
2017-06-02T07:16:57.723Z,38.96
2017-06-02T07:19:08.421Z,40.21
2017-06-02T07:21:24.990Z,38.81
2017-06-02T07:23:49.983Z,40.43
2017-06-02T07:26:14.901Z,39.65
2017-06-02T07:28:39.850Z,41.56
2017-06-02T07:31:04.788Z,42.61
2017-06-02T07:33:16.482Z,44.15
2017-06-02T07:35:41.376Z,45.08
2017-06-02T07:38:06.301Z,45.29
2017-06-02T07:40:08.379Z,44.62
2017-06-02T07:42:33.275Z,43.95
2017-06-02T07:44:58.158Z,42.76
2017-06-02T07:47:00.231Z,42.57
2017-06-02T07:49:25.120Z,41.32
2017-06-02T07:51:50.001Z,39.43
2017-06-02T07:54:14.885Z,36.49
2017-06-02T07:56:39.868Z,36.59
2017-06-02T07:59:04.862Z,36.59
2017-06-02T08:01:29.790Z,38.1
2017-06-02T08:03:46.345Z,35.91
2017-06-02T08:06:11.424Z,34.47
2017-06-02T08:08:36.528Z,34.26
2017-06-02T08:11:01.663Z,36.08
2017-06-02T08:13:18.279Z,35.03
2017-06-02T08:15:34.856Z,36.24
2017-06-02T08:17:36.979Z,35.21
2017-06-02T08:20:02.102Z,37.21
2017-06-02T08:22:18.647Z,36.65
2017-06-02T08:24:43.692Z,36.18
2017-06-02T08:27:08.738Z,36.67
2017-06-02T08:29:33.789Z,37.99
2017-06-02T08:31:58.815Z,37.34
2017-06-02T08:34:23.863Z,37.71
2017-06-02T08:36:48.890Z,38.1
2017-06-02T08:39:13.895Z,36.79
2017-06-02T08:41:38.941Z,36.67
2017-06-02T08:44:03.965Z,36.57
2017-06-02T08:46:29.978Z,38.4
2017-06-02T08:48:46.520Z,38.57
2017-06-02T08:51:11.489Z,36.59
2017-06-02T08:53:36.472Z,35.55
2017-06-02T08:55:53.038Z,35.08
2017-06-02T08:58:18.153Z,33.65
2017-06-02T09:00:43.305Z,33.46
2017-06-02T09:03:08.431Z,33.65
2017-06-02T09:05:33.537Z,33.25
2017-06-02T09:07:58.725Z,33.65
2017-06-02T09:10:23.957Z,32.98
2017-06-02T09:12:34.226Z,30.28
2017-06-02T09:14:59.532Z,31.22
2017-06-02T09:17:24.844Z,32.68
2017-06-02T09:19:50.145Z,31.26
2017-06-02T09:22:15.454Z,29.34
2017-06-02T09:24:40.880Z,27.59
2017-06-02T09:27:06.180Z,28.45
2017-06-02T09:29:31.586Z,27.91
2017-06-02T09:31:57.091Z,26.67
2017-06-02T09:34:22.609Z,25.71
2017-06-02T09:36:48.194Z,24.16
2017-06-02T09:40:50.180Z,25.87
2017-06-02T09:43:01.089Z,25.89
2017-06-02T09:45:26.753Z,27.01
2017-06-02T09:47:52.411Z,27.64
2017-06-02T09:50:17.992Z,26.36
2017-06-02T09:52:44.617Z,26.66
2017-06-02T09:55:10.226Z,25.7
2017-06-02T09:57:36.784Z,25.96
2017-06-02T10:00:02.396Z,25.71
2017-06-02T10:02:29.030Z,25.9
2017-06-02T10:04:47.142Z,24.33
2017-06-02T10:07:12.782Z,27.1
2017-06-02T10:09:38.355Z,26.82
2017-06-02T10:12:03.986Z,26.65
2017-06-02T10:14:29.752Z,28.09
2017-06-02T10:16:55.285Z,27.31
2017-06-02T10:19:20.875Z,27.31
2017-06-02T10:21:46.517Z,26.56
2017-06-02T10:24:04.629Z,26.72
2017-06-02T10:26:30.207Z,26.53
2017-06-02T10:28:41.077Z,29.49
2017-06-02T10:31:06.693Z,29.71
2017-06-02T10:33:15.199Z,28.06
2017-06-02T10:35:40.669Z,27.84
2017-06-02T10:38:06.179Z,28.06
2017-06-02T10:40:31.636Z,30.42
2017-06-02T10:42:48.630Z,28.74
2017-06-02T10:45:05.583Z,31.3
2017-06-02T10:47:31.071Z,30.93
2017-06-02T10:49:56.509Z,28.82
2017-06-02T10:52:21.915Z,27.86
2017-06-02T10:54:47.342Z,27.95
2017-06-02T10:57:12.750Z,28.16
2017-06-02T10:59:38.122Z,28.48
2017-06-02T11:02:03.523Z,27.28
2017-06-02T11:04:28.921Z,27.27
2017-06-02T11:06:54.334Z,28.24
2017-06-02T11:08:56.565Z,28.34
2017-06-02T11:11:22.010Z,29.39
2017-06-02T11:13:47.449Z,29.49
2017-06-02T11:16:04.310Z,29.66
2017-06-02T11:18:14.647Z,29.38
2017-06-02T11:20:40.064Z,28.44
2017-06-02T11:22:56.913Z,29
2017-06-02T11:25:22.284Z,28.82
2017-06-02T11:27:47.655Z,29
2017-06-02T11:30:12.977Z,30.07
2017-06-02T11:32:15.160Z,29.77
2017-06-02T11:34:32.050Z,30.43
2017-06-02T11:36:57.415Z,29.39
2017-06-02T11:39:22.743Z,33.02
2017-06-02T11:41:48.077Z,31.7
2017-06-02T11:44:13.419Z,29.86
2017-06-02T11:46:38.729Z,28.52
2017-06-02T11:48:55.531Z,30.98
2017-06-02T11:51:21.846Z,32.9
2017-06-02T11:53:23.978Z,31.47
2017-06-02T11:55:49.294Z,31.19
2017-06-02T11:58:14.565Z,30.45
2017-06-02T12:00:16.752Z,30.82
2017-06-02T12:02:43.078Z,31.61
2017-06-02T12:05:08.325Z,30.93
2017-06-02T12:07:33.592Z,30.05
2017-06-02T12:09:58.833Z,30.02
2017-06-02T12:12:24.037Z,31.27
2017-06-02T12:14:49.276Z,32.43
2017-06-02T12:17:14.500Z,31.09
2017-06-02T12:19:39.729Z,30.14
2017-06-02T12:22:04.972Z,31.09
2017-06-02T12:24:21.653Z,30.88
2017-06-02T12:26:23.815Z,30.78
2017-06-02T12:28:49.048Z,31.07
2017-06-02T12:31:05.733Z,30.98
2017-06-02T12:33:30.912Z,30.21
2017-06-02T12:35:56.130Z,30.3
2017-06-02T12:38:21.309Z,30.32
2017-06-02T12:40:37.993Z,31.65
2017-06-02T12:43:03.184Z,32.32
2017-06-02T12:45:28.358Z,31.94
2017-06-02T12:47:53.544Z,32.34
2017-06-02T12:50:18.655Z,32.12
2017-06-02T12:52:43.743Z,33.58
2017-06-02T12:55:08.908Z,32.39
2017-06-02T12:57:34.049Z,32.22
2017-06-02T12:59:59.194Z,31.93
2017-06-02T13:02:24.339Z,32.5
2017-06-02T13:04:49.428Z,32.73
2017-06-02T13:06:43.083Z,32.7
2017-06-02T13:08:53.804Z,31.83
2017-06-02T13:11:18.925Z,32.23
2017-06-02T13:13:44.068Z,33.02
2017-06-02T13:16:09.184Z,32.43
2017-06-02T13:18:25.807Z,32.43
2017-06-02T13:20:33.930Z,31.94
2017-06-02T13:22:50.550Z,31.57
2017-06-02T13:25:07.131Z,31.37
2017-06-02T13:27:32.261Z,31.09
2017-06-02T13:29:48.871Z,31.58
2017-06-02T13:32:14.001Z,31.87
2017-06-02T13:34:40.156Z,30.78
2017-06-02T13:37:05.304Z,31.91
2017-06-02T13:39:07.084Z,31.84
2017-06-02T13:41:32.233Z,30.4
2017-06-02T13:43:42.949Z,29.73
2017-06-02T13:46:08.109Z,30.29
2017-06-02T13:48:33.260Z,29.73
2017-06-02T13:50:49.928Z,29.14
2017-06-02T13:53:06.577Z,28.29
2017-06-02T13:55:08.770Z,27.81
2017-06-02T13:57:19.512Z,28.85
2017-06-02T13:59:44.762Z,30
2017-06-02T14:01:46.874Z,29.06
2017-06-02T14:04:12.129Z,31.07
2017-06-02T14:06:37.341Z,30.49
2017-06-02T14:09:03.466Z,31.06
2017-06-02T14:11:28.641Z,29.83
2017-06-02T14:13:54.823Z,29.9
2017-06-02T14:16:20.027Z,29.73
2017-06-02T14:18:30.785Z,30.77
2017-06-02T14:20:56.002Z,31.83
2017-06-02T14:23:06.702Z,31.52
2017-06-02T14:25:31.846Z,32.01
2017-06-02T14:27:56.930Z,32.48
2017-06-02T14:30:22.063Z,32.1
2017-06-02T14:32:47.160Z,32.19
2017-06-02T14:35:12.257Z,34.23
2017-06-02T14:37:37.294Z,33.53
2017-06-02T14:39:48.031Z,33.54
2017-06-02T14:42:13.113Z,32.68
2017-06-02T14:44:29.637Z,33.45
2017-06-02T14:46:54.673Z,34.42
2017-06-02T14:49:19.699Z,36.36
2017-06-02T14:51:44.701Z,42.14
2017-06-02T14:54:09.716Z,41.66
2017-06-02T14:56:34.686Z,42.8
2017-06-02T14:58:51.142Z,43.93
2017-06-02T15:01:07.563Z,44.24
2017-06-02T15:03:32.461Z,47.13
2017-06-02T15:05:57.316Z,50.02
2017-06-02T15:08:22.150Z,50.12
2017-06-02T15:10:47.009Z,50.9
2017-06-02T15:13:11.841Z,53.89
2017-06-02T15:15:36.623Z,54.76
2017-06-02T15:18:01.393Z,54.99
2017-06-02T15:20:26.184Z,54.3
2017-06-02T15:22:50.994Z,57.84
2017-06-02T15:25:15.795Z,58.03
2017-06-02T15:27:40.609Z,56.84
2017-06-02T15:30:05.367Z,57.2
2017-06-02T15:32:30.132Z,57.59
2017-06-02T15:34:54.877Z,60.25
2017-06-02T15:37:19.622Z,64.59
2017-06-02T15:39:44.376Z,61.97
2017-06-02T15:42:11.073Z,58.4
2017-06-02T15:44:35.852Z,57.56
2017-06-02T15:47:00.746Z,59.11
2017-06-02T15:49:25.777Z,59.21
2017-06-02T15:51:51.525Z,57.95
2017-06-02T15:54:16.390Z,59.5
2017-06-02T15:56:40.942Z,59.59
2017-06-02T15:59:06.568Z,60.28
2017-06-02T16:01:31.266Z,59.25
2017-06-02T16:03:55.881Z,59.51
2017-06-02T16:06:21.564Z,58.4
2017-06-02T16:08:46.143Z,58.5
2017-06-02T16:11:10.807Z,58.59
2017-06-02T16:13:35.421Z,58.5
2017-06-02T16:16:00.008Z,58.82
2017-06-02T16:18:24.662Z,56.77
2017-06-02T16:20:50.333Z,57.14
2017-06-02T16:23:14.984Z,60.25
2017-06-02T16:25:39.608Z,60.71
2017-06-02T16:27:50.198Z,61.25
2017-06-02T16:30:14.814Z,62.42
2017-06-02T16:32:39.377Z,64.43
2017-06-02T16:35:03.935Z,64.17
2017-06-02T16:37:29.550Z,63.68
2017-06-02T16:39:54.172Z,62.94
2017-06-02T16:42:18.756Z,63.13
2017-06-02T16:44:35.679Z,64.23
2017-06-02T16:47:00.307Z,64.85
2017-06-02T16:52:20.226Z,64.04
2017-06-02T16:57:44.137Z,62.9
2017-06-02T17:00:14.536Z,63.49
2017-06-02T17:02:39.175Z,63.59
2017-06-02T17:05:03.816Z,65.23
2017-06-02T17:07:28.547Z,65.92
2017-06-02T17:09:53.239Z,64.85
2017-06-02T17:12:19.095Z,65.04
2017-06-02T17:14:43.759Z,63.81
2017-06-02T17:17:08.405Z,64.39
2017-06-02T17:19:34.104Z,65.53
2017-06-02T17:24:42.650Z,65.59
2017-06-02T17:27:09.621Z,63.59
2017-06-02T17:29:34.213Z,63.07
2017-06-02T17:31:58.901Z,62.74
2017-06-02T17:34:15.070Z,64.01
2017-06-02T17:36:39.642Z,63.81
2017-06-02T17:39:04.179Z,62.77
2017-06-02T17:41:28.866Z,62.87
2017-06-02T17:45:55.631Z,62.03
2017-06-02T17:48:20.409Z,62.03
2017-06-02T17:50:45.104Z,61.87
2017-06-02T17:53:09.791Z,61.77
2017-06-02T17:55:34.580Z,62.16
2017-06-02T17:57:45.209Z,59.72
2017-06-02T18:00:09.951Z,63.95
2017-06-02T18:02:34.645Z,64.2
2017-06-02T18:04:50.847Z,64.72
2017-06-02T18:07:15.544Z,63.59
2017-06-02T18:09:47.111Z,63.2
2017-06-02T18:12:11.807Z,64.23
2017-06-02T18:14:28.941Z,65.5
2017-06-02T18:16:30.950Z,65.17
2017-06-02T18:18:55.568Z,65.85
2017-06-02T18:21:21.090Z,65.3
2017-06-02T18:23:45.692Z,64.07
2017-06-02T18:26:10.279Z,63.59
2017-06-02T18:28:34.870Z,62.74
2017-06-02T18:30:59.459Z,63.1
2017-06-02T18:33:24.054Z,63.39
2017-06-02T18:35:48.648Z,63.32
2017-06-02T18:38:13.245Z,63.42
2017-06-02T18:40:37.835Z,64.01
2017-06-02T18:43:02.434Z,64.56
2017-06-02T18:45:12.517Z,64.88
2017-06-02T18:47:28.693Z,68.79
2017-06-02T18:49:53.283Z,68.6
2017-06-02T18:52:09.403Z,68.05
2017-06-02T18:54:34.993Z,68.99
2017-06-02T18:56:28.042Z,68.6
2017-06-02T18:58:52.744Z,67.96
2017-06-02T19:01:17.437Z,67.86
2017-06-02T19:03:42.030Z,68.05
2017-06-02T19:06:06.622Z,68.44
2017-06-02T19:08:31.218Z,68.15
2017-06-02T19:10:47.301Z,65.4
2017-06-02T19:12:48.805Z,66.37
2017-06-02T19:14:50.287Z,65.5
2017-06-02T19:17:14.811Z,65.79
2017-06-02T19:19:22.435Z,66.66
2017-06-02T19:21:46.998Z,66.4
2017-06-02T19:24:11.483Z,66.99
2017-06-02T19:26:35.978Z,66.5
2017-06-02T19:28:37.444Z,66.79
2017-06-02T19:30:53.514Z,65.63
2017-06-02T19:33:18.114Z,67.44
2017-06-02T19:35:34.217Z,66.86
2017-06-02T19:37:58.813Z,66.37
2017-06-02T19:40:14.942Z,65.98
2017-06-02T19:42:39.490Z,66.56
2017-06-02T19:45:03.984Z,66.99
2017-06-02T19:47:05.474Z,67.14
2017-06-02T19:49:30.026Z,68.12
2017-06-02T19:51:54.464Z,67.54
2017-06-02T19:54:10.510Z,67.92
2017-06-02T19:56:18.047Z,67.63
2017-06-02T19:58:42.602Z,68.02
2017-06-02T20:01:07.191Z,68.96
2017-06-02T20:03:23.227Z,69.18
2017-06-02T20:05:30.780Z,68.51
2017-06-02T20:07:46.916Z,67.83
2017-06-02T20:10:11.477Z,68.12
2017-06-02T20:12:27.563Z,67.73
2017-06-02T20:14:52.159Z,68.51
2017-06-02T20:17:16.752Z,68.15
2017-06-02T20:19:41.345Z,68.7
2017-06-02T20:22:05.844Z,69.34
2017-06-02T20:24:30.435Z,69.34
2017-06-02T20:26:46.531Z,70.31
2017-06-02T20:29:11.133Z,70.12
2017-06-02T20:31:27.251Z,71.06
2017-06-02T20:33:51.829Z,71.44
2017-06-02T20:36:16.400Z,70.67
2017-06-02T20:38:40.900Z,70.8
2017-06-02T20:40:42.375Z,71.19
2017-06-02T20:42:44.599Z,71.09
2017-06-02T20:45:09.107Z,72.12
2017-06-02T20:47:02.122Z,71.83
2017-06-02T20:49:26.647Z,71.54
2017-06-02T20:51:36.656Z,71.34
2017-06-02T20:53:52.689Z,71.73
2017-06-02T20:56:17.600Z,71.83
2017-06-02T20:58:42.084Z,72.02
2017-06-02T21:01:06.584Z,72.86
2017-06-02T21:03:16.647Z,72.28
2017-06-02T21:05:32.721Z,72.18
2017-06-02T21:07:57.219Z,73.21
2017-06-02T21:10:21.705Z,72.34
2017-06-02T21:12:37.740Z,72.15
2017-06-02T21:15:02.187Z,72.57
2017-06-02T21:17:26.577Z,70.92
2017-06-02T21:19:42.568Z,70.11
2017-06-02T21:22:07.064Z,70.63
2017-06-02T21:26:15.836Z,70.92
2017-06-02T21:28:40.294Z,70.01
2017-06-02T21:31:04.772Z,70.98
2017-06-02T21:33:29.178Z,70.98
2017-06-02T21:35:45.113Z,70.89
2017-06-02T21:38:09.564Z,70.6
2017-06-02T21:40:34.050Z,70.73
2017-06-02T21:42:50.035Z,70.83
2017-06-02T21:45:14.536Z,71.22
2017-06-02T21:47:39.028Z,71.06
2017-06-02T21:50:03.515Z,71.12
2017-06-02T21:52:19.511Z,71.22
2017-06-02T21:54:35.499Z,71.02
2017-06-02T21:56:37.001Z,71.41
2017-06-02T21:59:01.556Z,70.63
2017-06-02T22:01:26.034Z,71.02
2017-06-02T22:03:50.523Z,73.02
2017-06-02T22:06:06.516Z,72.34
2017-06-02T22:08:31.017Z,73.21
2017-06-02T22:10:55.498Z,74.24
2017-06-02T22:13:19.890Z,75.02
2017-06-02T22:15:21.342Z,74.43
2017-06-02T22:17:22.823Z,73.95
2017-06-02T22:19:47.280Z,74.15
2017-06-02T22:22:03.219Z,73.75
2017-06-02T22:24:27.666Z,73.66
2017-06-02T22:26:52.153Z,74.15
2017-06-02T22:29:16.543Z,74.15
2017-06-02T22:30:57.994Z,74.73
2017-06-02T22:33:22.414Z,76.29
2017-06-02T22:35:38.405Z,75.91
2017-06-02T22:37:54.296Z,76.01
2017-06-02T22:40:18.688Z,76.29
2017-06-02T22:42:20.137Z,77.13
2017-06-02T22:44:44.521Z,78.25
2017-06-02T22:47:08.909Z,78.19
2017-06-02T22:49:24.854Z,78.34
2017-06-02T22:51:26.293Z,80.38
2017-06-02T22:53:50.644Z,79.35
2017-06-02T22:56:15.035Z,78.96
2017-06-02T22:58:39.326Z,78.23
2017-06-02T23:01:03.696Z,77.26
2017-06-02T23:03:19.591Z,76.97
2017-06-02T23:05:43.982Z,76.29
2017-06-02T23:08:08.263Z,77.17
2017-06-02T23:10:32.659Z,76.39
2017-06-02T23:12:57.053Z,76.39
2017-06-02T23:15:07.037Z,76.39
2017-06-02T23:17:31.395Z,76.29
2017-06-02T23:19:55.786Z,76.59
2017-06-02T23:22:20.166Z,76.97
2017-06-02T23:24:36.060Z,76.78
2017-06-02T23:27:00.446Z,76.24
2017-06-02T23:29:16.336Z,76.1
2017-06-02T23:31:23.829Z,76.1
2017-06-02T23:33:48.115Z,76.39
2017-06-02T23:36:12.399Z,79.02
2017-06-02T23:38:36.696Z,78.19
2017-06-02T23:40:44.183Z,77.07
2017-06-02T23:43:08.470Z,77.71
2017-06-02T23:45:32.756Z,78.09
2017-06-02T23:47:57.038Z,77.71
2017-06-02T23:50:21.329Z,77.36
2017-06-02T23:52:45.731Z,76.59
2017-06-02T23:55:10.110Z,76.59
2017-06-02T23:57:34.500Z,76.29
2017-06-02T23:59:50.445Z,76.2
